Terminal Aerodrome Forecast
Issued by NWS

Home | Current Version | Previous Version | Text Only | Print | Product List | Glossary Off
Versions: 1 2 3 4 5 6 7 8 9 10 11 12 13 14 15 16 17 18 19 20

000
FTUS43 KBIS 241730
TAFJMS
TAF
KJMS 241730Z 2418/2518 04012KT 6SM -RA BR OVC006
     FM241900 36012KT P6SM VCSH OVC008
     FM242000 35015KT P6SM OVC008
     FM250600 36015G24KT P6SM OVC003
     FM250900 01015G24KT P6SM OVC008=

USA.gov is the U.S. government's official web portal to all federal, state and local government web resources and services.